Time;durP1;ratioP1;P1;durP2;ratioP2;P2;SDS_P1;SDS_P2;PMS_P1;PMS_P2;Temp;Humidity;BMP_temperature;BMP_pressure;BME280_temperature;BME280_humidity;BME280_pressure;Samples;Min_cycle;Max_cycle;Signal;HPM_P1;HPM_P2
2022/09/17 00:55:47;;;;;;;15.65;6.43;;;;;;;;;;6105310;23;20214;-88
2022/09/17 00:58:53;;;;;;;11.77;6.45;;;;;;;;;;6109636;23;20169;-89
2022/09/17 01:01:58;;;;;;;11.52;6.45;;;;;;;;;;6110848;23;20328;-90
2022/09/17 01:05:04;;;;;;;9.82;6.18;;;;;;;;;;6108797;23;20214;-88
2022/09/17 01:08:13;;;;;;;10.35;6.13;;;;;;;;;;6109503;23;20202;-88
2022/09/17 01:11:29;;;;;;;13.63;6.47;;;;;;;;;;6109322;23;20222;-89
2022/09/17 01:14:42;;;;;;;12.88;6.13;;;;;;;;;;6109927;23;20261;-88
2022/09/17 01:17:52;;;;;;;10.38;5.60;;;;;;;;;;6109958;23;20173;-89
2022/09/17 01:21:17;;;;;;;9.57;4.97;;;;;;;;;;6108038;23;20614;-88
2022/09/17 01:24:49;;;;;;;10.55;5.28;;;;;;;;;;6107607;23;20495;-89
2022/09/17 01:28:15;;;;;;;11.75;5.20;;;;;;;;;;6110354;23;20197;-89
2022/09/17 01:31:27;;;;;;;14.15;5.72;;;;;;;;;;6106455;23;20218;-88
2022/09/17 01:34:38;;;;;;;9.18;5.50;;;;;;;;;;6106633;23;20174;-91
2022/09/17 01:37:48;;;;;;;9.55;5.00;;;;;;;;;;6106418;23;20186;-89
2022/09/17 01:40:57;;;;;;;9.52;4.57;;;;;;;;;;6104641;23;20674;-89
2022/09/17 01:44:05;;;;;;;9.02;5.00;;;;;;;;;;6106571;23;20174;-90
2022/09/17 01:47:14;;;;;;;10.10;4.90;;;;;;;;;;6104657;23;20170;-90
2022/09/17 01:50:22;;;;;;;8.02;3.80;;;;;;;;;;6106542;23;20162;-89
2022/09/17 01:53:30;;;;;;;7.57;4.30;;;;;;;;;;6108149;23;20178;-89
2022/09/17 01:56:37;;;;;;;6.20;4.07;;;;;;;;;;6104993;23;20173;-89
2022/09/17 01:59:44;;;;;;;6.47;3.47;;;;;;;;;;6106755;23;20170;-89
2022/09/17 02:02:54;;;;;;;7.45;3.40;;;;;;;;;;6106249;23;20220;-89
2022/09/17 02:06:02;;;;;;;5.45;3.00;;;;;;;;;;6105950;23;20222;-87
2022/09/17 02:09:08;;;;;;;6.65;2.78;;;;;;;;;;6108159;23;20189;-89
2022/09/17 02:12:16;;;;;;;6.30;2.65;;;;;;;;;;6104211;23;20169;-90
2022/09/17 02:15:22;;;;;;;5.32;2.40;;;;;;;;;;6105766;23;20219;-89
2022/09/17 02:18:31;;;;;;;4.38;2.25;;;;;;;;;;6106310;23;20622;-89
2022/09/17 02:21:41;;;;;;;5.32;2.67;;;;;;;;;;6105225;23;20643;-90
2022/09/17 02:24:48;;;;;;;5.93;2.22;;;;;;;;;;6106527;23;20174;-90
2022/09/17 02:27:59;;;;;;;4.20;2.30;;;;;;;;;;6105230;23;20197;-89
2022/09/17 02:31:06;;;;;;;2.33;1.98;;;;;;;;;;6106271;23;20841;-89
2022/09/17 02:34:13;;;;;;;3.00;1.75;;;;;;;;;;6105331;23;20173;-90
2022/09/17 02:37:18;;;;;;;5.85;2.20;;;;;;;;;;6104829;23;20232;-89
2022/09/17 02:40:26;;;;;;;3.88;2.00;;;;;;;;;;6105504;23;20174;-90
2022/09/17 02:43:36;;;;;;;5.22;2.03;;;;;;;;;;6104022;23;20174;-91
2022/09/17 02:46:48;;;;;;;3.85;2.10;;;;;;;;;;6104971;23;20174;-90
2022/09/17 02:50:03;;;;;;;3.88;2.10;;;;;;;;;;6104512;23;20513;-89
2022/09/17 02:53:15;;;;;;;5.18;2.10;;;;;;;;;;6103450;23;20237;-90
2022/09/17 02:56:24;;;;;;;6.47;2.42;;;;;;;;;;6103636;23;20177;-90
2022/09/17 02:59:32;;;;;;;2.95;2.20;;;;;;;;;;6105301;23;20217;-88
2022/09/17 03:02:39;;;;;;;4.68;2.03;;;;;;;;;;6105719;23;20613;-90
2022/09/17 03:05:45;;;;;;;8.45;2.45;;;;;;;;;;6106801;23;20225;-88
2022/09/17 03:08:51;;;;;;;4.32;2.00;;;;;;;;;;6106113;23;20318;-90
2022/09/17 03:11:56;;;;;;;3.60;2.20;;;;;;;;;;6105851;23;20182;-88
2022/09/17 03:15:02;;;;;;;2.50;1.92;;;;;;;;;;6106335;23;20173;-90
2022/09/17 03:18:07;;;;;;;4.57;2.13;;;;;;;;;;6106555;23;20234;-88
2022/09/17 03:21:13;;;;;;;5.07;2.15;;;;;;;;;;6107011;23;20597;-89
2022/09/17 03:24:18;;;;;;;11.10;2.22;;;;;;;;;;6106983;23;20297;-89
2022/09/17 03:27:22;;;;;;;5.18;2.05;;;;;;;;;;6104987;23;20173;-89
2022/09/17 03:30:27;;;;;;;4.45;2.30;;;;;;;;;;6105171;23;20271;-87
2022/09/17 03:33:32;;;;;;;4.03;2.22;;;;;;;;;;6115533;23;20177;-89
2022/09/17 03:36:39;;;;;;;8.45;2.60;;;;;;;;;;6106516;23;20504;-88
2022/09/17 03:39:44;;;;;;;4.18;2.00;;;;;;;;;;6106919;23;20174;-88
2022/09/17 03:42:49;;;;;;;4.63;2.33;;;;;;;;;;6107331;23;20681;-90
2022/09/17 03:45:57;;;;;;;3.47;1.80;;;;;;;;;;6107563;23;20235;-90
2022/09/17 03:49:02;;;;;;;3.08;2.10;;;;;;;;;;6107434;23;20185;-88
2022/09/17 03:52:08;;;;;;;2.90;2.22;;;;;;;;;;6107787;23;20633;-89
2022/09/17 03:55:14;;;;;;;3.38;2.05;;;;;;;;;;6107681;23;20230;-88
2022/09/17 03:58:20;;;;;;;4.63;2.25;;;;;;;;;;6107463;23;20174;-89
2022/09/17 04:01:26;;;;;;;2.85;1.75;;;;;;;;;;6105836;23;20173;-91
2022/09/17 04:04:31;;;;;;;4.00;1.92;;;;;;;;;;6106320;23;20173;-89
2022/09/17 04:07:38;;;;;;;7.80;2.20;;;;;;;;;;6105423;23;20678;-89
2022/09/17 04:10:42;;;;;;;5.80;2.30;;;;;;;;;;6105618;23;20501;-88
2022/09/17 04:13:48;;;;;;;4.68;2.00;;;;;;;;;;6107111;23;20166;-89
2022/09/17 04:16:53;;;;;;;3.88;1.85;;;;;;;;;;6105394;23;20678;-90
2022/09/17 04:19:58;;;;;;;4.32;2.10;;;;;;;;;;6105765;23;20173;-89
2022/09/17 04:23:05;;;;;;;5.43;2.13;;;;;;;;;;6104729;23;20158;-88
2022/09/17 04:26:11;;;;;;;4.13;1.90;;;;;;;;;;6107097;23;20173;-87
2022/09/17 04:29:16;;;;;;;5.28;1.98;;;;;;;;;;6107469;23;20205;-90
2022/09/17 04:32:21;;;;;;;2.35;1.85;;;;;;;;;;6106290;23;20174;-89
2022/09/17 04:35:26;;;;;;;4.78;2.05;;;;;;;;;;6106236;23;20166;-89
2022/09/17 04:38:33;;;;;;;7.88;2.20;;;;;;;;;;6107274;23;20157;-88
2022/09/17 04:41:39;;;;;;;4.22;1.90;;;;;;;;;;6108685;23;20170;-89
2022/09/17 04:44:44;;;;;;;6.57;1.77;;;;;;;;;;6109721;23;20173;-88
2022/09/17 04:47:50;;;;;;;8.50;2.17;;;;;;;;;;6108638;23;20174;-89
2022/09/17 04:50:55;;;;;;;5.18;1.98;;;;;;;;;;6107260;23;20170;-88
2022/09/17 04:54:02;;;;;;;10.05;2.50;;;;;;;;;;6106371;23;20186;-89
2022/09/17 04:57:07;;;;;;;5.75;2.30;;;;;;;;;;6106106;23;20162;-89
2022/09/17 05:00:14;;;;;;;8.27;2.55;;;;;;;;;;6104646;23;20508;-88
2022/09/17 05:03:18;;;;;;;3.88;1.83;;;;;;;;;;6104444;23;20169;-89
2022/09/17 05:06:25;;;;;;;9.40;2.30;;;;;;;;;;6104687;23;20275;-89
2022/09/17 05:09:31;;;;;;;4.03;1.77;;;;;;;;;;6103718;23;20258;-90
2022/09/17 05:12:36;;;;;;;4.72;2.00;;;;;;;;;;6104756;23;20178;-89
2022/09/17 05:15:41;;;;;;;11.18;2.40;;;;;;;;;;6107346;23;20497;-89
2022/09/17 05:18:48;;;;;;;4.50;2.05;;;;;;;;;;6105243;23;20174;-90
2022/09/17 05:21:53;;;;;;;4.88;2.08;;;;;;;;;;6105497;23;20192;-89
2022/09/17 05:24:59;;;;;;;7.47;2.13;;;;;;;;;;6104197;23;20594;-89
2022/09/17 05:28:05;;;;;;;4.90;2.20;;;;;;;;;;6103972;23;20177;-89
2022/09/17 05:31:10;;;;;;;7.70;2.00;;;;;;;;;;6104058;23;20178;-89
2022/09/17 05:34:14;;;;;;;4.25;1.70;;;;;;;;;;6104095;23;20178;-89
2022/09/17 05:37:20;;;;;;;10.68;2.05;;;;;;;;;;6105866;23;20212;-90
2022/09/17 05:40:26;;;;;;;8.50;2.00;;;;;;;;;;6102877;23;20299;-90
2022/09/17 05:43:31;;;;;;;4.18;1.80;;;;;;;;;;6101752;23;20186;-88
2022/09/17 05:46:36;;;;;;;5.55;1.50;;;;;;;;;;6103918;23;20225;-89
2022/09/17 05:49:42;;;;;;;5.95;1.70;;;;;;;;;;6102810;23;20681;-90
2022/09/17 05:52:47;;;;;;;10.77;2.03;;;;;;;;;;6102717;23;20174;-88
2022/09/17 05:55:56;;;;;;;5.82;1.77;;;;;;;;;;6104889;23;20524;-89
2022/09/17 05:59:01;;;;;;;5.45;1.80;;;;;;;;;;6105212;23;20645;-89
2022/09/17 06:02:08;;;;;;;7.93;2.15;;;;;;;;;;6088480;23;20191;-89
2022/09/17 06:05:14;;;;;;;6.50;2.20;;;;;;;;;;6105553;23;20504;-90
2022/09/17 06:08:23;;;;;;;5.10;2.00;;;;;;;;;;6104438;23;20178;-89
2022/09/17 06:11:29;;;;;;;13.57;1.85;;;;;;;;;;6104660;23;20173;-90
2022/09/17 06:14:34;;;;;;;8.32;1.90;;;;;;;;;;6104220;23;20173;-89
2022/09/17 06:17:39;;;;;;;5.90;2.05;;;;;;;;;;6105212;23;20271;-89
2022/09/17 06:20:44;;;;;;;6.28;2.00;;;;;;;;;;6106904;23;20277;-89
2022/09/17 06:23:49;;;;;;;4.90;1.60;;;;;;;;;;6106438;23;20170;-88
2022/09/17 06:26:56;;;;;;;10.13;1.88;;;;;;;;;;6105467;23;20174;-88
2022/09/17 06:30:01;;;;;;;6.47;2.00;;;;;;;;;;6104932;23;20198;-88
2022/09/17 06:33:06;;;;;;;2.95;1.77;;;;;;;;;;6105667;23;20170;-89
2022/09/17 06:36:12;;;;;;;8.27;2.40;;;;;;;;;;6104902;23;20206;-89
2022/09/17 06:39:16;;;;;;;4.93;1.65;;;;;;;;;;6108152;23;20220;-89
2022/09/17 06:42:23;;;;;;;4.80;1.70;;;;;;;;;;6105508;23;20169;-90
2022/09/17 06:45:30;;;;;;;7.63;2.30;;;;;;;;;;6108215;23;20169;-88
2022/09/17 06:48:36;;;;;;;6.22;2.28;;;;;;;;;;6108053;23;20243;-89
2022/09/17 06:51:41;;;;;;;8.68;1.70;;;;;;;;;;6105176;23;20181;-90
2022/09/17 06:54:46;;;;;;;7.18;1.90;;;;;;;;;;6106630;23;20197;-88
2022/09/17 06:57:53;;;;;;;7.18;2.58;;;;;;;;;;6108203;23;20617;-89
2022/09/17 07:01:00;;;;;;;5.07;2.20;;;;;;;;;;6107750;23;20170;-90
2022/09/17 07:04:05;;;;;;;8.95;2.00;;;;;;;;;;6106705;23;20178;-90
2022/09/17 07:07:10;;;;;;;8.75;2.72;;;;;;;;;;6105989;23;20182;-87
2022/09/17 07:10:15;;;;;;;7.85;2.03;;;;;;;;;;6104863;23;20200;-88
2022/09/17 07:13:22;;;;;;;4.10;1.90;;;;;;;;;;6107142;23;20174;-90
2022/09/17 07:16:29;;;;;;;8.82;2.22;;;;;;;;;;6107567;23;20189;-90
2022/09/17 07:19:34;;;;;;;6.70;1.90;;;;;;;;;;6104760;23;20198;-90
2022/09/17 07:22:41;;;;;;;5.97;2.28;;;;;;;;;;6106200;23;20170;-90
2022/09/17 07:25:51;;;;;;;7.28;2.00;;;;;;;;;;6108340;23;20170;-89
2022/09/17 07:28:58;;;;;;;7.13;2.10;;;;;;;;;;6106676;23;20194;-89
2022/09/17 07:32:03;;;;;;;8.75;3.08;;;;;;;;;;6108843;23;20170;-89
2022/09/17 07:35:09;;;;;;;7.95;2.53;;;;;;;;;;6109965;23;20162;-89
2022/09/17 07:38:16;;;;;;;8.77;2.80;;;;;;;;;;6107968;23;20170;-87
2022/09/17 07:41:21;;;;;;;6.05;1.92;;;;;;;;;;6108307;23;20165;-89
2022/09/17 07:44:27;;;;;;;6.57;2.10;;;;;;;;;;6108416;23;20217;-91
2022/09/17 07:47:45;;;;;;;7.20;2.10;;;;;;;;;;6110380;23;20173;-89
2022/09/17 07:50:50;;;;;;;6.38;2.17;;;;;;;;;;6111522;23;20186;-88
2022/09/17 07:53:56;;;;;;;7.40;2.35;;;;;;;;;;6108514;23;20165;-89
2022/09/17 07:57:02;;;;;;;6.07;1.85;;;;;;;;;;6110706;23;20174;-89
2022/09/17 08:00:09;;;;;;;7.97;1.58;;;;;;;;;;6110295;23;20202;-91
2022/09/17 08:03:17;;;;;;;4.38;1.80;;;;;;;;;;6111134;23;20173;-90
2022/09/17 08:06:24;;;;;;;4.68;1.80;;;;;;;;;;6109321;23;20169;-89
2022/09/17 08:09:30;;;;;;;8.48;1.73;;;;;;;;;;6109788;23;20313;-90
2022/09/17 08:12:35;;;;;;;11.50;2.40;;;;;;;;;;6109944;23;20174;-88
2022/09/17 08:15:42;;;;;;;6.15;1.73;;;;;;;;;;6110269;23;20228;-90
2022/09/17 08:18:47;;;;;;;10.82;1.88;;;;;;;;;;6108989;23;20189;-86
2022/09/17 08:21:52;;;;;;;8.20;1.83;;;;;;;;;;6111938;23;20169;-90
2022/09/17 08:42:31;;;;;;;6.65;1.92;;;;;;;;;;6060798;23;20277;-90
2022/09/17 08:45:36;;;;;;;4.82;1.30;;;;;;;;;;6123954;23;20181;-88
2022/09/17 08:48:46;;;;;;;9.13;1.70;;;;;;;;;;6121000;23;20226;-91
2022/09/17 08:51:59;;;;;;;4.05;1.58;;;;;;;;;;6123694;23;20164;-88
2022/09/17 08:55:10;;;;;;;8.30;1.92;;;;;;;;;;6122471;23;20250;-88
2022/09/17 08:58:26;;;;;;;5.45;1.52;;;;;;;;;;6121751;23;20177;-87
2022/09/17 09:01:39;;;;;;;2.85;1.08;;;;;;;;;;6123464;23;20149;-87
2022/09/17 09:05:05;;;;;;;10.18;1.40;;;;;;;;;;6121799;23;20169;-87
2022/09/17 09:08:15;;;;;;;6.68;1.38;;;;;;;;;;6122156;23;20169;-87
2022/09/17 09:11:25;;;;;;;6.43;1.33;;;;;;;;;;6123997;23;20780;-88
2022/09/17 09:14:32;;;;;;;3.63;1.30;;;;;;;;;;6124370;23;20161;-88
2022/09/17 09:17:41;;;;;;;4.63;1.33;;;;;;;;;;6124006;23;20194;-87
2022/09/17 09:20:50;;;;;;;7.85;1.40;;;;;;;;;;6124174;23;20173;-90
2022/09/17 09:23:57;;;;;;;3.00;1.15;;;;;;;;;;6125306;23;20571;-91
2022/09/17 09:27:11;;;;;;;5.32;1.02;;;;;;;;;;6124734;23;20221;-90
2022/09/17 09:30:22;;;;;;;7.72;1.00;;;;;;;;;;6125423;23;20194;-88
2022/09/17 09:33:28;;;;;;;8.50;1.30;;;;;;;;;;6128287;23;20193;-89
2022/09/17 09:36:34;;;;;;;6.15;1.35;;;;;;;;;;6125188;23;20235;-90
2022/09/17 09:39:40;;;;;;;4.78;1.30;;;;;;;;;;6124462;23;20494;-88
2022/09/17 09:42:45;;;;;;;6.25;1.30;;;;;;;;;;6121954;23;20208;-90
2022/09/17 09:45:58;;;;;;;7.75;1.20;;;;;;;;;;6125779;23;20157;-88
2022/09/17 09:49:10;;;;;;;2.70;0.80;;;;;;;;;;6126959;23;20177;-86
2022/09/17 09:52:20;;;;;;;3.42;1.17;;;;;;;;;;6126190;23;20198;-89
2022/09/17 09:55:43;;;;;;;7.78;1.15;;;;;;;;;;6127031;23;20186;-90
2022/09/17 09:58:48;;;;;;;5.53;1.27;;;;;;;;;;6125123;23;20169;-87
2022/09/17 10:01:54;;;;;;;4.18;1.10;;;;;;;;;;6122862;23;20205;-90
2022/09/17 10:05:08;;;;;;;10.48;1.38;;;;;;;;;;6124093;23;20177;-89
2022/09/17 10:08:14;;;;;;;5.18;1.20;;;;;;;;;;6123559;23;20173;-90
2022/09/17 10:11:21;;;;;;;3.90;1.38;;;;;;;;;;6125967;23;20629;-88
2022/09/17 10:14:27;;;;;;;2.35;1.13;;;;;;;;;;6120739;23;20172;-90
2022/09/17 10:17:33;;;;;;;1.95;0.93;;;;;;;;;;6121811;23;20157;-90
2022/09/17 10:20:49;;;;;;;2.47;0.80;;;;;;;;;;6125475;23;20226;-90
2022/09/17 10:24:07;;;;;;;1.73;0.88;;;;;;;;;;6121153;23;20165;-88
2022/09/17 10:27:14;;;;;;;3.83;0.80;;;;;;;;;;6123763;23;20279;-89
2022/09/17 10:30:19;;;;;;;3.92;1.17;;;;;;;;;;6128013;23;20180;-89
2022/09/17 10:33:27;;;;;;;1.63;0.75;;;;;;;;;;6125392;23;20149;-90
2022/09/17 10:36:42;;;;;;;0.82;0.80;;;;;;;;;;6125605;23;20168;-90
2022/09/17 10:39:48;;;;;;;1.23;0.80;;;;;;;;;;6130745;23;20176;-90
2022/09/17 10:43:16;;;;;;;1.63;0.77;;;;;;;;;;6121163;23;20192;-91
2022/09/17 10:46:28;;;;;;;1.67;0.60;;;;;;;;;;6124341;23;20174;-89
2022/09/17 23:09:47;;;;;;;6.72;1.75;;;;;;;;;;6099377;23;20217;-86
2022/09/17 23:12:54;;;;;;;6.15;1.55;;;;;;;;;;6108180;23;20174;-88
2022/09/17 23:16:00;;;;;;;4.88;1.75;;;;;;;;;;6107270;23;20613;-87
2022/09/17 23:19:06;;;;;;;3.10;1.30;;;;;;;;;;6107676;23;20149;-87
2022/09/17 23:22:11;;;;;;;4.75;1.85;;;;;;;;;;6107819;23;20294;-88
2022/09/17 23:25:18;;;;;;;3.45;1.30;;;;;;;;;;6108951;23;20170;-88
2022/09/17 23:28:23;;;;;;;6.28;1.60;;;;;;;;;;6110132;23;20173;-88
2022/09/17 23:31:28;;;;;;;2.72;1.38;;;;;;;;;;6109027;23;20276;-88
2022/09/17 23:34:33;;;;;;;4.25;1.40;;;;;;;;;;6108846;23;20263;-87
2022/09/17 23:37:39;;;;;;;3.10;1.65;;;;;;;;;;6107952;23;20173;-87
2022/09/17 23:40:45;;;;;;;4.63;1.50;;;;;;;;;;6108372;23;20165;-88
2022/09/17 23:43:52;;;;;;;3.75;1.38;;;;;;;;;;6108772;23;20170;-88
2022/09/17 23:46:59;;;;;;;5.60;1.70;;;;;;;;;;6108203;23;20174;-87
2022/09/17 23:50:05;;;;;;;6.93;1.67;;;;;;;;;;6107996;23;20259;-89
2022/09/17 23:53:10;;;;;;;4.55;1.40;;;;;;;;;;6108430;23;20162;-88
2022/09/17 23:56:18;;;;;;;6.30;1.65;;;;;;;;;;6108013;23;20173;-89
2022/09/17 23:59:23;;;;;;;3.38;1.55;;;;;;;;;;6108424;23;20170;-87
